sensor_id;sensor_type;location;lat;lon;timestamp;pressure;altitude;pressure_sealevel;temperature;humidity
53715;BME280;39608;55.630;37.864;2024-01-25T00:03:47;98344.41;;;0.79;81.00
53715;BME280;39608;55.630;37.864;2024-01-25T00:08:51;98336.41;;;0.79;80.77
53715;BME280;39608;55.630;37.864;2024-01-25T00:13:53;98337.75;;;0.87;80.64
53715;BME280;39608;55.630;37.864;2024-01-25T00:18:55;98332.44;;;0.87;80.64
53715;BME280;39608;55.630;37.864;2024-01-25T00:23:58;98327.66;;;0.89;80.07
53715;BME280;39608;55.630;37.864;2024-01-25T00:29:00;98309.50;;;0.85;80.03
53715;BME280;39608;55.630;37.864;2024-01-25T00:34:02;98299.28;;;0.72;80.37
53715;BME280;39608;55.630;37.864;2024-01-25T00:39:07;98295.03;;;0.76;80.60
53715;BME280;39608;55.630;37.864;2024-01-25T00:44:10;98302.53;;;0.84;79.84
53715;BME280;39608;55.630;37.864;2024-01-25T00:49:12;98299.31;;;0.82;79.75
53715;BME280;39608;55.630;37.864;2024-01-25T00:54:17;98277.69;;;0.79;79.17
53715;BME280;39608;55.630;37.864;2024-01-25T00:59:19;98284.13;;;0.88;79.42
53715;BME280;39608;55.630;37.864;2024-01-25T01:04:25;98274.28;;;0.89;79.28
53715;BME280;39608;55.630;37.864;2024-01-25T01:09:29;98279.31;;;0.85;79.08
53715;BME280;39608;55.630;37.864;2024-01-25T01:14:31;98265.97;;;0.85;79.09
53715;BME280;39608;55.630;37.864;2024-01-25T01:19:33;98261.97;;;0.88;78.89
53715;BME280;39608;55.630;37.864;2024-01-25T01:24:36;98240.34;;;0.79;78.89
53715;BME280;39608;55.630;37.864;2024-01-25T01:29:38;98224.31;;;0.74;78.60
53715;BME280;39608;55.630;37.864;2024-01-25T01:34:41;98234.75;;;0.80;78.55
53715;BME280;39608;55.630;37.864;2024-01-25T01:39:45;98227.78;;;0.74;78.91
53715;BME280;39608;55.630;37.864;2024-01-25T01:44:47;98225.38;;;0.67;78.94
53715;BME280;39608;55.630;37.864;2024-01-25T01:49:49;98217.63;;;0.66;79.11
53715;BME280;39608;55.630;37.864;2024-01-25T01:54:52;98217.38;;;0.67;79.23
53715;BME280;39608;55.630;37.864;2024-01-25T01:59:57;98212.31;;;0.76;79.16
53715;BME280;39608;55.630;37.864;2024-01-25T02:05:02;98221.63;;;0.63;78.71
53715;BME280;39608;55.630;37.864;2024-01-25T02:10:07;98219.22;;;0.62;79.29
53715;BME280;39608;55.630;37.864;2024-01-25T02:15:09;98207.16;;;0.54;78.87
53715;BME280;39608;55.630;37.864;2024-01-25T02:20:11;98219.41;;;0.50;79.13
53715;BME280;39608;55.630;37.864;2024-01-25T02:25:15;98221.78;;;0.41;79.07
53715;BME280;39608;55.630;37.864;2024-01-25T02:30:17;98214.28;;;0.33;79.62
53715;BME280;39608;55.630;37.864;2024-01-25T02:35:19;98215.81;;;0.24;79.50
53715;BME280;39608;55.630;37.864;2024-01-25T02:40:22;98209.19;;;0.21;79.59
53715;BME280;39608;55.630;37.864;2024-01-25T02:45:24;98209.41;;;0.20;79.64
53715;BME280;39608;55.630;37.864;2024-01-25T02:50:26;98216.84;;;0.12;79.68
53715;BME280;39608;55.630;37.864;2024-01-25T02:55:29;98210.41;;;0.03;80.53
53715;BME280;39608;55.630;37.864;2024-01-25T03:00:31;98209.09;;;0.11;80.30
53715;BME280;39608;55.630;37.864;2024-01-25T03:05:33;98202.19;;;0.15;79.94
53715;BME280;39608;55.630;37.864;2024-01-25T03:10:37;98200.59;;;0.14;80.37
53715;BME280;39608;55.630;37.864;2024-01-25T03:15:39;98194.97;;;0.10;79.97
53715;BME280;39608;55.630;37.864;2024-01-25T03:20:41;98192.06;;;0.12;80.36
53715;BME280;39608;55.630;37.864;2024-01-25T03:25:44;98182.19;;;0.12;80.36
53715;BME280;39608;55.630;37.864;2024-01-25T03:30:46;98184.06;;;0.12;80.41
53715;BME280;39608;55.630;37.864;2024-01-25T03:35:48;98177.94;;;0.11;80.37
53715;BME280;39608;55.630;37.864;2024-01-25T03:40:51;98176.03;;;0.07;80.73
53715;BME280;39608;55.630;37.864;2024-01-25T03:45:54;98166.44;;;0.06;80.70
53715;BME280;39608;55.630;37.864;2024-01-25T03:50:56;98165.88;;;0.04;80.62
53715;BME280;39608;55.630;37.864;2024-01-25T03:55:59;98160.59;;;0.09;80.52
53715;BME280;39608;55.630;37.864;2024-01-25T04:01:02;98156.59;;;0.06;80.75
53715;BME280;39608;55.630;37.864;2024-01-25T04:06:04;98148.03;;;0.04;80.79
53715;BME280;39608;55.630;37.864;2024-01-25T04:11:07;98132.03;;;0.04;80.63
53715;BME280;39608;55.630;37.864;2024-01-25T04:16:13;98135.25;;;0.06;80.41
53715;BME280;39608;55.630;37.864;2024-01-25T04:21:15;98131.50;;;0.02;80.48
53715;BME280;39608;55.630;37.864;2024-01-25T04:26:19;98126.69;;;0.04;80.44
53715;BME280;39608;55.630;37.864;2024-01-25T04:31:21;98134.13;;;-0.03;80.63
53715;BME280;39608;55.630;37.864;2024-01-25T04:36:23;98141.88;;;-0.02;80.67
53715;BME280;39608;55.630;37.864;2024-01-25T04:41:26;98153.88;;;0.01;80.35
53715;BME280;39608;55.630;37.864;2024-01-25T04:46:28;98137.63;;;-0.03;80.22
53715;BME280;39608;55.630;37.864;2024-01-25T04:51:35;98136.81;;;-0.08;80.54
53715;BME280;39608;55.630;37.864;2024-01-25T04:56:39;98152.19;;;-0.21;80.53
53715;BME280;39608;55.630;37.864;2024-01-25T05:01:41;98153.53;;;-0.13;80.46
53715;BME280;39608;55.630;37.864;2024-01-25T05:06:45;98148.22;;;-0.13;80.47
53715;BME280;39608;55.630;37.864;2024-01-25T05:11:49;98155.16;;;-0.12;80.06
53715;BME280;39608;55.630;37.864;2024-01-25T05:16:51;98155.38;;;-0.19;80.56
53715;BME280;39608;55.630;37.864;2024-01-25T05:21:53;98146.28;;;-0.23;80.79
53715;BME280;39608;55.630;37.864;2024-01-25T05:26:56;98152.69;;;-0.24;80.44
53715;BME280;39608;55.630;37.864;2024-01-25T05:31:58;98146.56;;;-0.24;80.51
53715;BME280;39608;55.630;37.864;2024-01-25T05:37:00;98146.28;;;-0.28;80.55
53715;BME280;39608;55.630;37.864;2024-01-25T05:42:04;98145.72;;;-0.30;80.64
53715;BME280;39608;55.630;37.864;2024-01-25T05:47:06;98144.16;;;-0.26;80.81
53715;BME280;39608;55.630;37.864;2024-01-25T05:52:08;98144.16;;;-0.26;80.89
53715;BME280;39608;55.630;37.864;2024-01-25T05:57:11;98139.38;;;-0.24;81.01
53715;BME280;39608;55.630;37.864;2024-01-25T06:02:13;98147.06;;;-0.27;80.80
53715;BME280;39608;55.630;37.864;2024-01-25T06:07:16;98141.22;;;-0.29;80.31
53715;BME280;39608;55.630;37.864;2024-01-25T06:12:19;98140.19;;;-0.23;80.21
53715;BME280;39608;55.630;37.864;2024-01-25T06:17:22;98138.31;;;-0.23;80.15
53715;BME280;39608;55.630;37.864;2024-01-25T06:22:24;98133.00;;;-0.18;80.44
53715;BME280;39608;55.630;37.864;2024-01-25T06:27:28;98137.81;;;-0.20;80.00
53715;BME280;39608;55.630;37.864;2024-01-25T06:32:29;98141.78;;;-0.17;80.14
53715;BME280;39608;55.630;37.864;2024-01-25T06:37:31;98145.03;;;-0.15;79.81
53715;BME280;39608;55.630;37.864;2024-01-25T06:42:35;98139.44;;;-0.13;79.68
53715;BME280;39608;55.630;37.864;2024-01-25T06:47:37;98142.34;;;-0.15;79.21
53715;BME280;39608;55.630;37.864;2024-01-25T06:52:38;98133.31;;;-0.09;78.97
53715;BME280;39608;55.630;37.864;2024-01-25T06:57:42;98133.09;;;-0.02;79.25
53715;BME280;39608;55.630;37.864;2024-01-25T07:02:44;98136.81;;;-0.08;79.06
53715;BME280;39608;55.630;37.864;2024-01-25T07:07:46;98142.38;;;-0.10;78.91
53715;BME280;39608;55.630;37.864;2024-01-25T07:12:52;98142.09;;;-0.13;78.71
53715;BME280;39608;55.630;37.864;2024-01-25T07:17:54;98151.13;;;-0.20;78.03
53715;BME280;39608;55.630;37.864;2024-01-25T07:22:56;98140.22;;;-0.18;78.07
53715;BME280;39608;55.630;37.864;2024-01-25T07:27:59;98136.25;;;-0.10;78.09
53715;BME280;39608;55.630;37.864;2024-01-25T07:33:02;98140.56;;;-0.04;78.42
53715;BME280;39608;55.630;37.864;2024-01-25T07:38:04;98145.59;;;-0.08;78.05
53715;BME280;39608;55.630;37.864;2024-01-25T07:43:07;98153.06;;;-0.05;77.78
53715;BME280;39608;55.630;37.864;2024-01-25T07:48:09;98144.00;;;-0.04;77.74
53715;BME280;39608;55.630;37.864;2024-01-25T07:53:11;98145.28;;;-0.11;77.34
53715;BME280;39608;55.630;37.864;2024-01-25T07:58:16;98154.41;;;-0.02;77.40
53715;BME280;39608;55.630;37.864;2024-01-25T08:03:18;98147.50;;;0.02;77.63
53715;BME280;39608;55.630;37.864;2024-01-25T08:08:22;98136.88;;;0.07;77.29
53715;BME280;39608;55.630;37.864;2024-01-25T08:13:25;98122.53;;;0.19;76.93
53715;BME280;39608;55.630;37.864;2024-01-25T08:18:28;98135.59;;;0.30;76.73
53715;BME280;39608;55.630;37.864;2024-01-25T08:23:30;98134.81;;;0.30;76.56
53715;BME280;39608;55.630;37.864;2024-01-25T08:28:34;98142.53;;;0.26;76.62
53715;BME280;39608;55.630;37.864;2024-01-25T08:33:36;98124.41;;;0.28;76.05
53715;BME280;39608;55.630;37.864;2024-01-25T08:38:38;98124.94;;;0.25;75.93
53715;BME280;39608;55.630;37.864;2024-01-25T08:43:41;98122.00;;;0.27;75.73
53715;BME280;39608;55.630;37.864;2024-01-25T08:48:43;98135.06;;;0.23;75.74
53715;BME280;39608;55.630;37.864;2024-01-25T08:53:45;98124.91;;;0.20;75.30
53715;BME280;39608;55.630;37.864;2024-01-25T08:58:49;98132.41;;;0.28;75.43
53715;BME280;39608;55.630;37.864;2024-01-25T09:03:51;98115.31;;;0.19;75.59
53715;BME280;39608;55.630;37.864;2024-01-25T09:08:54;98118.25;;;0.28;74.98
53715;BME280;39608;55.630;37.864;2024-01-25T09:13:57;98132.72;;;0.47;74.94
53715;BME280;39608;55.630;37.864;2024-01-25T09:18:59;98123.63;;;0.43;74.52
53715;BME280;39608;55.630;37.864;2024-01-25T09:24:01;98129.25;;;0.47;74.70
53715;BME280;39608;55.630;37.864;2024-01-25T09:29:04;98142.34;;;0.59;74.78
53715;BME280;39608;55.630;37.864;2024-01-25T09:34:06;98138.09;;;0.53;74.30
53715;BME280;39608;55.630;37.864;2024-01-25T09:39:08;98136.47;;;0.46;74.07
53715;BME280;39608;55.630;37.864;2024-01-25T09:44:12;98122.06;;;0.53;74.04
53715;BME280;39608;55.630;37.864;2024-01-25T09:49:14;98122.38;;;0.56;74.46
53715;BME280;39608;55.630;37.864;2024-01-25T09:54:16;98124.22;;;0.61;74.61
53715;BME280;39608;55.630;37.864;2024-01-25T09:59:20;98116.25;;;0.76;74.58
53715;BME280;39608;55.630;37.864;2024-01-25T10:04:22;98107.72;;;0.74;74.48
53715;BME280;39608;55.630;37.864;2024-01-25T10:09:25;98105.59;;;0.81;75.08
53715;BME280;39608;55.630;37.864;2024-01-25T10:14:29;98098.66;;;0.80;74.86
53715;BME280;39608;55.630;37.864;2024-01-25T10:19:31;98098.38;;;0.72;74.34
53715;BME280;39608;55.630;37.864;2024-01-25T10:24:33;98104.75;;;0.65;73.72
53715;BME280;39608;55.630;37.864;2024-01-25T10:29:37;98104.78;;;0.71;74.13
53715;BME280;39608;55.630;37.864;2024-01-25T10:34:39;98110.91;;;0.71;74.21
53715;BME280;39608;55.630;37.864;2024-01-25T10:39:41;98104.50;;;0.67;74.40
53715;BME280;39608;55.630;37.864;2024-01-25T10:44:45;98104.50;;;0.72;74.15
53715;BME280;39608;55.630;37.864;2024-01-25T10:49:48;98106.38;;;0.72;74.36
53715;BME280;39608;55.630;37.864;2024-01-25T10:54:50;98114.38;;;0.66;74.56
53715;BME280;39608;55.630;37.864;2024-01-25T10:59:54;98114.09;;;0.63;74.51
53715;BME280;39608;55.630;37.864;2024-01-25T11:04:56;98117.03;;;0.56;74.73
53715;BME280;39608;55.630;37.864;2024-01-25T11:09:59;98112.75;;;0.55;74.76
53715;BME280;39608;55.630;37.864;2024-01-25T11:15:08;98110.06;;;0.50;75.88
53715;BME280;39608;55.630;37.864;2024-01-25T11:20:13;98107.63;;;0.43;75.31
53715;BME280;39608;55.630;37.864;2024-01-25T11:25:19;98108.16;;;0.40;74.86
53715;BME280;39608;55.630;37.864;2024-01-25T11:30:23;98104.19;;;0.43;75.20
53715;BME280;39608;55.630;37.864;2024-01-25T11:35:25;98111.91;;;0.44;75.41
53715;BME280;39608;55.630;37.864;2024-01-25T11:40:27;98117.75;;;0.31;75.83
53715;BME280;39608;55.630;37.864;2024-01-25T11:45:33;98115.59;;;0.28;76.08
53715;BME280;39608;55.630;37.864;2024-01-25T11:50:43;98110.53;;;0.26;76.11
53715;BME280;39608;55.630;37.864;2024-01-25T11:55:46;98116.13;;;0.25;76.08
53715;BME280;39608;55.630;37.864;2024-01-25T12:00:50;98110.25;;;0.28;76.08
53715;BME280;39608;55.630;37.864;2024-01-25T12:05:52;98117.75;;;0.26;76.31
53715;BME280;39608;55.630;37.864;2024-01-25T12:11:03;98118.81;;;0.30;76.93
53715;BME280;39608;55.630;37.864;2024-01-25T12:16:08;98122.78;;;0.22;76.57
53715;BME280;39608;55.630;37.864;2024-01-25T12:21:10;98119.34;;;0.27;76.58
53715;BME280;39608;55.630;37.864;2024-01-25T12:26:12;98113.47;;;0.25;76.49
53715;BME280;39608;55.630;37.864;2024-01-25T12:31:15;98119.09;;;0.28;76.50
53715;BME280;39608;55.630;37.864;2024-01-25T12:36:18;98124.94;;;0.25;76.49
53715;BME280;39608;55.630;37.864;2024-01-25T12:41:20;98119.28;;;0.16;76.28
53715;BME280;39608;55.630;37.864;2024-01-25T12:46:23;98132.88;;;0.15;76.97
53715;BME280;39608;55.630;37.864;2024-01-25T12:51:26;98133.41;;;0.12;76.41
53715;BME280;39608;55.630;37.864;2024-01-25T12:56:27;98129.66;;;0.08;76.75
53715;BME280;39608;55.630;37.864;2024-01-25T13:01:31;98134.44;;;0.01;76.62
53715;BME280;39608;55.630;37.864;2024-01-25T13:06:33;98143.47;;;-0.01;76.48
53715;BME280;39608;55.630;37.864;2024-01-25T13:11:35;98147.47;;;-0.03;76.17
53715;BME280;39608;55.630;37.864;2024-01-25T13:16:38;98152.00;;;-0.04;76.34
53715;BME280;39608;55.630;37.864;2024-01-25T13:21:41;98147.47;;;-0.08;76.93
53715;BME280;39608;55.630;37.864;2024-01-25T13:26:43;98152.72;;;-0.19;77.18
53715;BME280;39608;55.630;37.864;2024-01-25T13:31:46;98154.84;;;-0.15;76.97
53715;BME280;39608;55.630;37.864;2024-01-25T13:36:49;98160.97;;;-0.20;77.42
53715;BME280;39608;55.630;37.864;2024-01-25T13:41:51;98169.47;;;-0.23;77.63
53715;BME280;39608;55.630;37.864;2024-01-25T13:46:57;98163.59;;;-0.30;77.96
53715;BME280;39608;55.630;37.864;2024-01-25T13:52:00;98173.09;;;-0.40;77.74
53715;BME280;39608;55.630;37.864;2024-01-25T13:57:03;98183.16;;;-0.47;77.89
53715;BME280;39608;55.630;37.864;2024-01-25T14:02:07;98181.88;;;-0.44;78.69
53715;BME280;39608;55.630;37.864;2024-01-25T14:07:09;98180.25;;;-0.45;78.93
53715;BME280;39608;55.630;37.864;2024-01-25T14:12:11;98182.06;;;-0.51;78.69
53715;BME280;39608;55.630;37.864;2024-01-25T14:17:14;98181.53;;;-0.53;79.22
53715;BME280;39608;55.630;37.864;2024-01-25T14:22:17;98176.69;;;-0.56;79.01
53715;BME280;39608;55.630;37.864;2024-01-25T14:27:22;98190.28;;;-0.58;79.32
53715;BME280;39608;55.630;37.864;2024-01-25T14:32:31;98188.38;;;-0.62;79.52
53715;BME280;39608;55.630;37.864;2024-01-25T14:37:33;98190.25;;;-0.63;79.72
53715;BME280;39608;55.630;37.864;2024-01-25T14:42:35;98191.47;;;-0.76;80.24
53715;BME280;39608;55.630;37.864;2024-01-25T14:47:39;98208.78;;;-0.73;80.32
53715;BME280;39608;55.630;37.864;2024-01-25T14:52:41;98205.13;;;-0.67;79.97
53715;BME280;39608;55.630;37.864;2024-01-25T14:57:43;98196.78;;;-0.76;79.81
53715;BME280;39608;55.630;37.864;2024-01-25T15:02:47;98199.16;;;-0.79;80.12
53715;BME280;39608;55.630;37.864;2024-01-25T15:07:49;98196.28;;;-0.73;79.80
53715;BME280;39608;55.630;37.864;2024-01-25T15:12:52;98210.72;;;-0.68;80.13
53715;BME280;39608;55.630;37.864;2024-01-25T15:18:01;98217.38;;;-0.66;80.25
53715;BME280;39608;55.630;37.864;2024-01-25T15:23:03;98227.72;;;-0.70;80.12
53715;BME280;39608;55.630;37.864;2024-01-25T15:28:05;98229.28;;;-0.74;80.02
53715;BME280;39608;55.630;37.864;2024-01-25T15:33:09;98235.38;;;-0.78;80.70
53715;BME280;39608;55.630;37.864;2024-01-25T15:38:11;98237.97;;;-0.83;80.59
53715;BME280;39608;55.630;37.864;2024-01-25T15:43:16;98244.59;;;-0.86;80.92
53715;BME280;39608;55.630;37.864;2024-01-25T15:48:19;98250.78;;;-0.80;80.43
53715;BME280;39608;55.630;37.864;2024-01-25T15:53:21;98256.19;;;-0.70;80.46
53715;BME280;39608;55.630;37.864;2024-01-25T15:58:23;98249.22;;;-0.76;80.13
53715;BME280;39608;55.630;37.864;2024-01-25T16:03:27;98253.25;;;-0.74;80.70
53715;BME280;39608;55.630;37.864;2024-01-25T16:08:29;98255.09;;;-0.74;80.78
53715;BME280;39608;55.630;37.864;2024-01-25T16:13:31;98256.16;;;-0.75;80.08
53715;BME280;39608;55.630;37.864;2024-01-25T16:18:35;98249.28;;;-0.71;80.35
53715;BME280;39608;55.630;37.864;2024-01-25T16:23:37;98263.59;;;-0.77;80.61
53715;BME280;39608;55.630;37.864;2024-01-25T16:28:39;98267.91;;;-0.71;80.05
53715;BME280;39608;55.630;37.864;2024-01-25T16:33:42;98269.22;;;-0.74;80.54
53715;BME280;39608;55.630;37.864;2024-01-25T16:38:44;98270.00;;;-0.73;80.24
53715;BME280;39608;55.630;37.864;2024-01-25T16:43:46;98264.41;;;-0.77;80.25
53715;BME280;39608;55.630;37.864;2024-01-25T16:48:50;98267.84;;;-0.76;80.28
53715;BME280;39608;55.630;37.864;2024-01-25T16:53:52;98273.19;;;-0.76;80.50
53715;BME280;39608;55.630;37.864;2024-01-25T16:58:54;98270.53;;;-0.76;80.16
53715;BME280;39608;55.630;37.864;2024-01-25T17:03:58;98278.31;;;-0.70;80.18
53715;BME280;39608;55.630;37.864;2024-01-25T17:09:00;98270.84;;;-0.73;80.45
53715;BME280;39608;55.630;37.864;2024-01-25T17:14:02;98278.25;;;-0.75;80.29
53715;BME280;39608;55.630;37.864;2024-01-25T17:19:06;98278.00;;;-0.73;80.36
53715;BME280;39608;55.630;37.864;2024-01-25T17:24:08;98276.59;;;-0.81;80.76
53715;BME280;39608;55.630;37.864;2024-01-25T17:29:10;98279.00;;;-0.79;80.35
53715;BME280;39608;55.630;37.864;2024-01-25T17:34:13;98277.41;;;-0.80;80.66
53715;BME280;39608;55.630;37.864;2024-01-25T17:39:15;98283.78;;;-0.81;80.57
53715;BME280;39608;55.630;37.864;2024-01-25T17:44:17;98284.53;;;-0.86;80.75
53715;BME280;39608;55.630;37.864;2024-01-25T17:49:20;98288.31;;;-0.82;80.66
53715;BME280;39608;55.630;37.864;2024-01-25T17:54:25;98300.84;;;-0.77;80.77
53715;BME280;39608;55.630;37.864;2024-01-25T17:59:27;98296.53;;;-0.83;80.38
53715;BME280;39608;55.630;37.864;2024-01-25T18:04:31;98302.97;;;-0.79;80.67
53715;BME280;39608;55.630;37.864;2024-01-25T18:09:33;98292.25;;;-0.84;80.50
53715;BME280;39608;55.630;37.864;2024-01-25T18:14:37;98310.34;;;-0.87;80.46
53715;BME280;39608;55.630;37.864;2024-01-25T18:19:41;98314.31;;;-0.89;80.55
53715;BME280;39608;55.630;37.864;2024-01-25T18:24:43;98322.53;;;-0.91;80.37
53715;BME280;39608;55.630;37.864;2024-01-25T18:29:45;98331.75;;;-0.98;80.39
53715;BME280;39608;55.630;37.864;2024-01-25T18:34:48;98333.38;;;-0.97;80.37
53715;BME280;39608;55.630;37.864;2024-01-25T18:39:50;98333.25;;;-1.08;80.07
53715;BME280;39608;55.630;37.864;2024-01-25T18:44:52;98341.47;;;-1.09;80.26
53715;BME280;39608;55.630;37.864;2024-01-25T18:49:55;98345.69;;;-1.13;80.28
53715;BME280;39608;55.630;37.864;2024-01-25T18:54:58;98337.06;;;-1.21;79.57
53715;BME280;39608;55.630;37.864;2024-01-25T19:00:01;98348.47;;;-1.25;79.66
53715;BME280;39608;55.630;37.864;2024-01-25T19:05:07;98348.38;;;-1.30;79.95
53715;BME280;39608;55.630;37.864;2024-01-25T19:10:10;98352.38;;;-1.33;79.41
53715;BME280;39608;55.630;37.864;2024-01-25T19:15:12;98360.63;;;-1.29;79.35
53715;BME280;39608;55.630;37.864;2024-01-25T19:20:15;98358.47;;;-1.32;79.17
53715;BME280;39608;55.630;37.864;2024-01-25T19:25:17;98355.91;;;-1.44;79.38
53715;BME280;39608;55.630;37.864;2024-01-25T19:30:19;98362.31;;;-1.45;79.67
53715;BME280;39608;55.630;37.864;2024-01-25T19:35:23;98361.66;;;-1.52;79.41
53715;BME280;39608;55.630;37.864;2024-01-25T19:40:27;98373.00;;;-1.57;78.86
53715;BME280;39608;55.630;37.864;2024-01-25T19:45:29;98372.38;;;-1.64;79.29
53715;BME280;39608;55.630;37.864;2024-01-25T19:50:32;98376.16;;;-1.60;78.95
53715;BME280;39608;55.630;37.864;2024-01-25T19:55:34;98377.94;;;-1.66;78.71
53715;BME280;39608;55.630;37.864;2024-01-25T20:00:36;98384.78;;;-1.70;78.93
53715;BME280;39608;55.630;37.864;2024-01-25T20:05:41;98382.38;;;-1.72;78.92
53715;BME280;39608;55.630;37.864;2024-01-25T20:10:43;98379.63;;;-1.77;78.48
53715;BME280;39608;55.630;37.864;2024-01-25T20:15:45;98386.00;;;-1.78;78.74
53715;BME280;39608;55.630;37.864;2024-01-25T20:20:48;98388.09;;;-1.80;78.89
53715;BME280;39608;55.630;37.864;2024-01-25T20:25:50;98393.56;;;-1.86;78.68
53715;BME280;39608;55.630;37.864;2024-01-25T20:30:52;98393.97;;;-1.95;78.24
53715;BME280;39608;55.630;37.864;2024-01-25T20:35:55;98387.59;;;-1.94;78.24
53715;BME280;39608;55.630;37.864;2024-01-25T20:40:57;98387.50;;;-2.16;78.73
53715;BME280;39608;55.630;37.864;2024-01-25T20:45:59;98391.38;;;-2.07;77.67
53715;BME280;39608;55.630;37.864;2024-01-25T20:51:03;98402.25;;;-2.08;77.54
53715;BME280;39608;55.630;37.864;2024-01-25T20:56:06;98396.75;;;-2.18;77.67
53715;BME280;39608;55.630;37.864;2024-01-25T21:01:08;98403.13;;;-2.19;77.63
53715;BME280;39608;55.630;37.864;2024-01-25T21:06:13;98401.16;;;-2.24;77.57
53715;BME280;39608;55.630;37.864;2024-01-25T21:11:15;98410.44;;;-2.27;77.35
53715;BME280;39608;55.630;37.864;2024-01-25T21:16:18;98410.44;;;-2.27;77.22
53715;BME280;39608;55.630;37.864;2024-01-25T21:21:21;98410.09;;;-2.30;77.72
53715;BME280;39608;55.630;37.864;2024-01-25T21:26:23;98418.84;;;-2.30;77.75
53715;BME280;39608;55.630;37.864;2024-01-25T21:31:25;98412.16;;;-2.32;77.56
53715;BME280;39608;55.630;37.864;2024-01-25T21:36:29;98428.78;;;-2.25;77.88
53715;BME280;39608;55.630;37.864;2024-01-25T21:41:31;98429.03;;;-2.27;77.64
53715;BME280;39608;55.630;37.864;2024-01-25T21:46:33;98433.50;;;-2.27;77.75
53715;BME280;39608;55.630;37.864;2024-01-25T21:51:42;98437.78;;;-2.26;78.19
53715;BME280;39608;55.630;37.864;2024-01-25T21:56:44;98439.41;;;-2.25;77.87
53715;BME280;39608;55.630;37.864;2024-01-25T22:01:46;98446.06;;;-2.22;77.56
53715;BME280;39608;55.630;37.864;2024-01-25T22:06:50;98442.13;;;-2.20;78.20
53715;BME280;39608;55.630;37.864;2024-01-25T22:11:52;98443.81;;;-2.31;77.82
53715;BME280;39608;55.630;37.864;2024-01-25T22:16:53;98443.81;;;-2.31;77.65
53715;BME280;39608;55.630;37.864;2024-01-25T22:21:57;98455.34;;;-2.25;77.68
53715;BME280;39608;55.630;37.864;2024-01-25T22:26:59;98457.09;;;-2.31;77.39
53715;BME280;39608;55.630;37.864;2024-01-25T22:32:01;98453.63;;;-2.31;77.79
53715;BME280;39608;55.630;37.864;2024-01-25T22:37:05;98461.81;;;-2.33;77.23
53715;BME280;39608;55.630;37.864;2024-01-25T22:42:07;98465.28;;;-2.32;77.63
53715;BME280;39608;55.630;37.864;2024-01-25T22:47:09;98469.66;;;-2.26;77.91
53715;BME280;39608;55.630;37.864;2024-01-25T22:52:12;98476.25;;;-2.29;77.50
53715;BME280;39608;55.630;37.864;2024-01-25T22:57:14;98474.06;;;-2.32;77.83
53715;BME280;39608;55.630;37.864;2024-01-25T23:02:16;98477.19;;;-2.35;77.59
53715;BME280;39608;55.630;37.864;2024-01-25T23:07:19;98485.97;;;-2.34;77.44
53715;BME280;39608;55.630;37.864;2024-01-25T23:12:21;98489.41;;;-2.34;78.08
53715;BME280;39608;55.630;37.864;2024-01-25T23:17:23;98488.97;;;-2.31;77.73
53715;BME280;39608;55.630;37.864;2024-01-25T23:22:27;98497.25;;;-2.27;77.53
53715;BME280;39608;55.630;37.864;2024-01-25T23:27:29;98495.31;;;-2.32;77.73
53715;BME280;39608;55.630;37.864;2024-01-25T23:32:30;98502.44;;;-2.32;77.55
53715;BME280;39608;55.630;37.864;2024-01-25T23:37:34;98508.91;;;-2.28;77.56
53715;BME280;39608;55.630;37.864;2024-01-25T23:42:36;98507.75;;;-2.32;77.65
53715;BME280;39608;55.630;37.864;2024-01-25T23:47:38;98522.56;;;-2.36;77.27
53715;BME280;39608;55.630;37.864;2024-01-25T23:52:41;98518.06;;;-2.36;77.57
53715;BME280;39608;55.630;37.864;2024-01-25T23:57:44;98517.38;;;-2.43;77.96
